sensor_id;sensor_type;location;lat;lon;timestamp;P1;durP1;ratioP1;P2;durP2;ratioP2
46008;SDS011;39597;51.438;7.006;2022-10-31T00:01:22;11.75;;;5.10;;
46008;SDS011;39597;51.438;7.006;2022-10-31T00:03:47;10.52;;;4.85;;
46008;SDS011;39597;51.438;7.006;2022-10-31T00:06:13;12.77;;;4.87;;
46008;SDS011;39597;51.438;7.006;2022-10-31T00:08:39;11.43;;;4.95;;
46008;SDS011;39597;51.438;7.006;2022-10-31T00:11:08;10.87;;;4.57;;
46008;SDS011;39597;51.438;7.006;2022-10-31T00:13:33;9.38;;;4.28;;
46008;SDS011;39597;51.438;7.006;2022-10-31T00:15:59;8.80;;;4.03;;
46008;SDS011;39597;51.438;7.006;2022-10-31T00:18:24;12.03;;;4.50;;
46008;SDS011;39597;51.438;7.006;2022-10-31T00:20:57;9.25;;;4.43;;
46008;SDS011;39597;51.438;7.006;2022-10-31T00:23:23;13.63;;;4.65;;
46008;SDS011;39597;51.438;7.006;2022-10-31T00:25:48;8.67;;;3.73;;
46008;SDS011;39597;51.438;7.006;2022-10-31T00:28:14;8.17;;;3.70;;
46008;SDS011;39597;51.438;7.006;2022-10-31T00:30:39;10.87;;;3.80;;
46008;SDS011;39597;51.438;7.006;2022-10-31T00:33:04;12.17;;;5.07;;
46008;SDS011;39597;51.438;7.006;2022-10-31T00:35:30;10.20;;;4.72;;
46008;SDS011;39597;51.438;7.006;2022-10-31T00:40:20;8.67;;;4.40;;
46008;SDS011;39597;51.438;7.006;2022-10-31T00:45:11;10.50;;;4.97;;
46008;SDS011;39597;51.438;7.006;2022-10-31T00:47:38;11.68;;;4.22;;
46008;SDS011;39597;51.438;7.006;2022-10-31T00:50:04;10.67;;;4.37;;
46008;SDS011;39597;51.438;7.006;2022-10-31T00:52:30;9.75;;;4.20;;
46008;SDS011;39597;51.438;7.006;2022-10-31T00:54:55;11.07;;;5.15;;
46008;SDS011;39597;51.438;7.006;2022-10-31T00:59:46;7.77;;;3.63;;
46008;SDS011;39597;51.438;7.006;2022-10-31T01:02:11;10.70;;;4.60;;
46008;SDS011;39597;51.438;7.006;2022-10-31T01:07:02;12.30;;;4.33;;
46008;SDS011;39597;51.438;7.006;2022-10-31T01:11:52;8.80;;;3.70;;
46008;SDS011;39597;51.438;7.006;2022-10-31T01:14:18;13.63;;;4.18;;
46008;SDS011;39597;51.438;7.006;2022-10-31T01:19:08;10.07;;;4.50;;
46008;SDS011;39597;51.438;7.006;2022-10-31T01:23:59;9.30;;;4.07;;
46008;SDS011;39597;51.438;7.006;2022-10-31T01:26:27;12.07;;;4.82;;
46008;SDS011;39597;51.438;7.006;2022-10-31T01:28:59;11.30;;;4.03;;
46008;SDS011;39597;51.438;7.006;2022-10-31T01:31:27;11.07;;;4.30;;
46008;SDS011;39597;51.438;7.006;2022-10-31T01:33:54;9.27;;;3.85;;
46008;SDS011;39597;51.438;7.006;2022-10-31T01:38:47;9.88;;;4.05;;
46008;SDS011;39597;51.438;7.006;2022-10-31T01:46:17;12.70;;;3.95;;
46008;SDS011;39597;51.438;7.006;2022-10-31T01:48:51;9.73;;;4.03;;
46008;SDS011;39597;51.438;7.006;2022-10-31T01:51:19;8.90;;;3.50;;
46008;SDS011;39597;51.438;7.006;2022-10-31T01:53:48;8.77;;;4.15;;
46008;SDS011;39597;51.438;7.006;2022-10-31T01:56:16;8.70;;;3.83;;
46008;SDS011;39597;51.438;7.006;2022-10-31T02:01:10;7.85;;;3.78;;
46008;SDS011;39597;51.438;7.006;2022-10-31T02:03:37;8.25;;;4.07;;
46008;SDS011;39597;51.438;7.006;2022-10-31T02:06:03;11.80;;;5.43;;
46008;SDS011;39597;51.438;7.006;2022-10-31T02:08:33;11.75;;;4.28;;
46008;SDS011;39597;51.438;7.006;2022-10-31T02:11:01;10.23;;;3.92;;
46008;SDS011;39597;51.438;7.006;2022-10-31T02:13:27;9.15;;;4.72;;
46008;SDS011;39597;51.438;7.006;2022-10-31T02:15:56;10.30;;;3.60;;
46008;SDS011;39597;51.438;7.006;2022-10-31T02:18:24;8.45;;;4.07;;
46008;SDS011;39597;51.438;7.006;2022-10-31T02:29:28;11.43;;;3.90;;
46008;SDS011;39597;51.438;7.006;2022-10-31T02:32:02;11.75;;;5.13;;
46008;SDS011;39597;51.438;7.006;2022-10-31T02:37:37;11.50;;;4.72;;
46008;SDS011;39597;51.438;7.006;2022-10-31T02:42:55;9.65;;;4.05;;
46008;SDS011;39597;51.438;7.006;2022-10-31T02:45:44;10.27;;;4.47;;
46008;SDS011;39597;51.438;7.006;2022-10-31T02:48:26;11.13;;;4.35;;
46008;SDS011;39597;51.438;7.006;2022-10-31T02:50:55;10.10;;;4.07;;
46008;SDS011;39597;51.438;7.006;2022-10-31T02:53:23;10.35;;;3.92;;
46008;SDS011;39597;51.438;7.006;2022-10-31T02:58:38;11.35;;;4.15;;
46008;SDS011;39597;51.438;7.006;2022-10-31T03:01:14;9.55;;;4.13;;
46008;SDS011;39597;51.438;7.006;2022-10-31T03:12:46;9.65;;;4.35;;
46008;SDS011;39597;51.438;7.006;2022-10-31T03:15:27;12.95;;;5.05;;
46008;SDS011;39597;51.438;7.006;2022-10-31T03:20:37;10.02;;;4.13;;
46008;SDS011;39597;51.438;7.006;2022-10-31T03:23:06;7.75;;;3.47;;
46008;SDS011;39597;51.438;7.006;2022-10-31T03:25:36;10.82;;;3.92;;
46008;SDS011;39597;51.438;7.006;2022-10-31T03:30:29;13.33;;;4.57;;
46008;SDS011;39597;51.438;7.006;2022-10-31T03:33:02;12.15;;;4.18;;
46008;SDS011;39597;51.438;7.006;2022-10-31T03:35:37;10.65;;;4.38;;
46008;SDS011;39597;51.438;7.006;2022-10-31T03:38:07;18.67;;;5.32;;
46008;SDS011;39597;51.438;7.006;2022-10-31T03:40:34;10.43;;;4.15;;
46008;SDS011;39597;51.438;7.006;2022-10-31T03:43:07;9.85;;;3.33;;
46008;SDS011;39597;51.438;7.006;2022-10-31T03:45:41;10.18;;;4.25;;
46008;SDS011;39597;51.438;7.006;2022-10-31T03:48:10;11.35;;;4.70;;
46008;SDS011;39597;51.438;7.006;2022-10-31T03:50:40;12.25;;;3.90;;
46008;SDS011;39597;51.438;7.006;2022-10-31T03:53:20;8.52;;;3.45;;
46008;SDS011;39597;51.438;7.006;2022-10-31T03:56:02;11.73;;;3.93;;
46008;SDS011;39597;51.438;7.006;2022-10-31T03:58:36;9.45;;;3.95;;
46008;SDS011;39597;51.438;7.006;2022-10-31T04:01:08;12.98;;;4.28;;
46008;SDS011;39597;51.438;7.006;2022-10-31T04:03:38;12.52;;;3.97;;
46008;SDS011;39597;51.438;7.006;2022-10-31T04:06:05;9.77;;;3.85;;
46008;SDS011;39597;51.438;7.006;2022-10-31T04:08:39;7.30;;;3.70;;
46008;SDS011;39597;51.438;7.006;2022-10-31T04:11:09;11.38;;;5.20;;
46008;SDS011;39597;51.438;7.006;2022-10-31T04:13:37;10.38;;;4.00;;
46008;SDS011;39597;51.438;7.006;2022-10-31T04:16:04;10.77;;;3.88;;
46008;SDS011;39597;51.438;7.006;2022-10-31T04:18:31;12.35;;;4.13;;
46008;SDS011;39597;51.438;7.006;2022-10-31T04:21:14;11.23;;;3.40;;
46008;SDS011;39597;51.438;7.006;2022-10-31T04:23:40;11.50;;;4.75;;
46008;SDS011;39597;51.438;7.006;2022-10-31T04:26:05;8.53;;;3.97;;
46008;SDS011;39597;51.438;7.006;2022-10-31T04:30:57;8.45;;;3.78;;
46008;SDS011;39597;51.438;7.006;2022-10-31T04:33:23;10.07;;;4.27;;
46008;SDS011;39597;51.438;7.006;2022-10-31T04:38:13;10.60;;;3.93;;
46008;SDS011;39597;51.438;7.006;2022-10-31T04:40:38;10.27;;;4.87;;
46008;SDS011;39597;51.438;7.006;2022-10-31T04:45:29;10.37;;;3.60;;
46008;SDS011;39597;51.438;7.006;2022-10-31T04:47:54;9.90;;;3.70;;
46008;SDS011;39597;51.438;7.006;2022-10-31T04:52:45;9.20;;;3.27;;
46008;SDS011;39597;51.438;7.006;2022-10-31T04:55:11;8.57;;;4.07;;
46008;SDS011;39597;51.438;7.006;2022-10-31T04:57:44;8.95;;;4.07;;
46008;SDS011;39597;51.438;7.006;2022-10-31T05:00:11;11.55;;;3.75;;
46008;SDS011;39597;51.438;7.006;2022-10-31T05:02:42;12.77;;;4.32;;
46008;SDS011;39597;51.438;7.006;2022-10-31T05:05:12;11.30;;;4.93;;
46008;SDS011;39597;51.438;7.006;2022-10-31T05:07:39;12.48;;;3.65;;
46008;SDS011;39597;51.438;7.006;2022-10-31T05:10:11;8.15;;;4.18;;
46008;SDS011;39597;51.438;7.006;2022-10-31T05:12:38;10.43;;;3.67;;
46008;SDS011;39597;51.438;7.006;2022-10-31T05:15:11;8.75;;;3.40;;
46008;SDS011;39597;51.438;7.006;2022-10-31T05:17:37;9.90;;;4.10;;
46008;SDS011;39597;51.438;7.006;2022-10-31T05:20:02;16.17;;;5.13;;
46008;SDS011;39597;51.438;7.006;2022-10-31T05:22:28;10.63;;;5.05;;
46008;SDS011;39597;51.438;7.006;2022-10-31T05:24:54;12.20;;;5.10;;
46008;SDS011;39597;51.438;7.006;2022-10-31T05:27:21;11.30;;;4.75;;
46008;SDS011;39597;51.438;7.006;2022-10-31T05:29:46;19.77;;;5.70;;
46008;SDS011;39597;51.438;7.006;2022-10-31T05:32:11;11.57;;;4.83;;
46008;SDS011;39597;51.438;7.006;2022-10-31T05:34:37;9.50;;;4.40;;
46008;SDS011;39597;51.438;7.006;2022-10-31T05:37:02;10.55;;;4.22;;
46008;SDS011;39597;51.438;7.006;2022-10-31T05:39:27;10.53;;;3.80;;
46008;SDS011;39597;51.438;7.006;2022-10-31T05:41:53;9.32;;;4.20;;
46008;SDS011;39597;51.438;7.006;2022-10-31T05:44:18;10.10;;;4.40;;
46008;SDS011;39597;51.438;7.006;2022-10-31T05:46:43;10.20;;;4.37;;
46008;SDS011;39597;51.438;7.006;2022-10-31T05:49:11;10.02;;;3.90;;
46008;SDS011;39597;51.438;7.006;2022-10-31T05:51:36;7.90;;;3.77;;
46008;SDS011;39597;51.438;7.006;2022-10-31T05:54:01;11.20;;;4.15;;
46008;SDS011;39597;51.438;7.006;2022-10-31T05:56:27;9.13;;;3.60;;
46008;SDS011;39597;51.438;7.006;2022-10-31T05:58:52;8.53;;;3.80;;
46008;SDS011;39597;51.438;7.006;2022-10-31T06:01:17;22.60;;;3.70;;
46008;SDS011;39597;51.438;7.006;2022-10-31T06:03:43;12.07;;;4.63;;
46008;SDS011;39597;51.438;7.006;2022-10-31T06:06:08;12.80;;;5.53;;
46008;SDS011;39597;51.438;7.006;2022-10-31T06:08:33;12.37;;;5.20;;
46008;SDS011;39597;51.438;7.006;2022-10-31T06:10:58;9.67;;;4.53;;
46008;SDS011;39597;51.438;7.006;2022-10-31T06:13:24;10.00;;;4.10;;
46008;SDS011;39597;51.438;7.006;2022-10-31T06:15:49;11.30;;;4.87;;
46008;SDS011;39597;51.438;7.006;2022-10-31T06:18:15;7.83;;;4.10;;
46008;SDS011;39597;51.438;7.006;2022-10-31T06:20:41;11.25;;;3.85;;
46008;SDS011;39597;51.438;7.006;2022-10-31T06:23:06;12.60;;;5.20;;
46008;SDS011;39597;51.438;7.006;2022-10-31T06:25:32;8.35;;;4.28;;
46008;SDS011;39597;51.438;7.006;2022-10-31T06:27:58;9.70;;;4.03;;
46008;SDS011;39597;51.438;7.006;2022-10-31T06:30:24;8.95;;;4.43;;
46008;SDS011;39597;51.438;7.006;2022-10-31T06:32:50;10.93;;;4.82;;
46008;SDS011;39597;51.438;7.006;2022-10-31T06:35:16;10.35;;;4.15;;
46008;SDS011;39597;51.438;7.006;2022-10-31T06:40:07;9.95;;;3.40;;
46008;SDS011;39597;51.438;7.006;2022-10-31T06:42:33;8.38;;;3.85;;
46008;SDS011;39597;51.438;7.006;2022-10-31T06:44:58;11.60;;;5.50;;
46008;SDS011;39597;51.438;7.006;2022-10-31T06:47:25;13.10;;;4.20;;
46008;SDS011;39597;51.438;7.006;2022-10-31T06:49:50;8.38;;;3.72;;
46008;SDS011;39597;51.438;7.006;2022-10-31T06:52:16;10.67;;;4.33;;
46008;SDS011;39597;51.438;7.006;2022-10-31T06:54:41;11.30;;;4.80;;
46008;SDS011;39597;51.438;7.006;2022-10-31T06:59:31;16.43;;;4.90;;
46008;SDS011;39597;51.438;7.006;2022-10-31T07:01:57;11.13;;;4.78;;
46008;SDS011;39597;51.438;7.006;2022-10-31T07:04:23;14.00;;;5.82;;
46008;SDS011;39597;51.438;7.006;2022-10-31T07:06:50;12.85;;;4.93;;
46008;SDS011;39597;51.438;7.006;2022-10-31T07:09:16;11.77;;;5.32;;
46008;SDS011;39597;51.438;7.006;2022-10-31T07:11:42;11.70;;;4.77;;
46008;SDS011;39597;51.438;7.006;2022-10-31T07:14:07;11.52;;;4.45;;
46008;SDS011;39597;51.438;7.006;2022-10-31T07:16:33;14.23;;;4.60;;
46008;SDS011;39597;51.438;7.006;2022-10-31T07:19:03;11.98;;;5.47;;
46008;SDS011;39597;51.438;7.006;2022-10-31T07:21:34;12.95;;;4.85;;
46008;SDS011;39597;51.438;7.006;2022-10-31T07:23:59;13.33;;;5.40;;
46008;SDS011;39597;51.438;7.006;2022-10-31T07:26:24;16.97;;;5.83;;
46008;SDS011;39597;51.438;7.006;2022-10-31T07:28:51;12.73;;;5.90;;
46008;SDS011;39597;51.438;7.006;2022-10-31T07:31:19;13.70;;;5.67;;
46008;SDS011;39597;51.438;7.006;2022-10-31T07:33:46;13.60;;;6.53;;
46008;SDS011;39597;51.438;7.006;2022-10-31T07:36:11;13.82;;;5.35;;
46008;SDS011;39597;51.438;7.006;2022-10-31T07:38:37;16.15;;;6.72;;
46008;SDS011;39597;51.438;7.006;2022-10-31T07:41:02;14.07;;;5.47;;
46008;SDS011;39597;51.438;7.006;2022-10-31T07:43:27;15.00;;;6.00;;
46008;SDS011;39597;51.438;7.006;2022-10-31T07:48:18;12.02;;;5.90;;
46008;SDS011;39597;51.438;7.006;2022-10-31T07:50:44;15.20;;;5.53;;
46008;SDS011;39597;51.438;7.006;2022-10-31T07:53:10;14.60;;;4.93;;
46008;SDS011;39597;51.438;7.006;2022-10-31T07:55:37;13.88;;;5.65;;
46008;SDS011;39597;51.438;7.006;2022-10-31T07:58:04;13.23;;;5.65;;
46008;SDS011;39597;51.438;7.006;2022-10-31T08:00:32;13.23;;;5.80;;
46008;SDS011;39597;51.438;7.006;2022-10-31T08:02:59;15.05;;;5.88;;
46008;SDS011;39597;51.438;7.006;2022-10-31T08:05:35;9.85;;;5.28;;
46008;SDS011;39597;51.438;7.006;2022-10-31T08:08:03;14.55;;;5.45;;
46008;SDS011;39597;51.438;7.006;2022-10-31T08:10:29;16.58;;;7.45;;
46008;SDS011;39597;51.438;7.006;2022-10-31T08:12:55;13.07;;;5.63;;
46008;SDS011;39597;51.438;7.006;2022-10-31T08:15:24;21.25;;;6.20;;
46008;SDS011;39597;51.438;7.006;2022-10-31T08:17:50;11.30;;;4.70;;
46008;SDS011;39597;51.438;7.006;2022-10-31T08:20:15;15.50;;;5.45;;
46008;SDS011;39597;51.438;7.006;2022-10-31T08:22:40;14.43;;;5.72;;
46008;SDS011;39597;51.438;7.006;2022-10-31T08:25:06;12.60;;;6.15;;
46008;SDS011;39597;51.438;7.006;2022-10-31T08:27:31;13.07;;;5.18;;
46008;SDS011;39597;51.438;7.006;2022-10-31T08:29:57;12.95;;;4.97;;
46008;SDS011;39597;51.438;7.006;2022-10-31T08:34:48;12.40;;;5.65;;
46008;SDS011;39597;51.438;7.006;2022-10-31T08:37:13;16.92;;;6.47;;
46008;SDS011;39597;51.438;7.006;2022-10-31T08:39:44;18.23;;;6.85;;
46008;SDS011;39597;51.438;7.006;2022-10-31T08:42:11;18.50;;;7.22;;
46008;SDS011;39597;51.438;7.006;2022-10-31T08:44:37;22.83;;;10.30;;
46008;SDS011;39597;51.438;7.006;2022-10-31T08:47:02;16.88;;;7.18;;
46008;SDS011;39597;51.438;7.006;2022-10-31T08:51:53;18.37;;;7.07;;
46008;SDS011;39597;51.438;7.006;2022-10-31T08:56:43;20.58;;;7.65;;
46008;SDS011;39597;51.438;7.006;2022-10-31T09:01:35;14.90;;;5.93;;
46008;SDS011;39597;51.438;7.006;2022-10-31T09:06:25;17.60;;;6.75;;
46008;SDS011;39597;51.438;7.006;2022-10-31T09:08:52;17.67;;;7.97;;
46008;SDS011;39597;51.438;7.006;2022-10-31T09:11:18;20.67;;;7.47;;
46008;SDS011;39597;51.438;7.006;2022-10-31T09:16:08;17.10;;;6.67;;
46008;SDS011;39597;51.438;7.006;2022-10-31T09:18:33;19.50;;;7.33;;
46008;SDS011;39597;51.438;7.006;2022-10-31T09:21:00;18.52;;;7.75;;
46008;SDS011;39597;51.438;7.006;2022-10-31T09:25:52;19.45;;;6.85;;
46008;SDS011;39597;51.438;7.006;2022-10-31T09:28:19;13.82;;;6.55;;
46008;SDS011;39597;51.438;7.006;2022-10-31T09:30:46;17.80;;;7.75;;
46008;SDS011;39597;51.438;7.006;2022-10-31T09:33:13;22.52;;;7.00;;
46008;SDS011;39597;51.438;7.006;2022-10-31T09:35:39;16.52;;;7.60;;
46008;SDS011;39597;51.438;7.006;2022-10-31T09:38:09;18.17;;;7.55;;
46008;SDS011;39597;51.438;7.006;2022-10-31T09:40:37;24.08;;;8.13;;
46008;SDS011;39597;51.438;7.006;2022-10-31T09:43:15;19.05;;;7.43;;
46008;SDS011;39597;51.438;7.006;2022-10-31T09:46:11;23.10;;;8.35;;
46008;SDS011;39597;51.438;7.006;2022-10-31T09:51:15;20.02;;;8.30;;
46008;SDS011;39597;51.438;7.006;2022-10-31T09:53:53;16.25;;;7.45;;
46008;SDS011;39597;51.438;7.006;2022-10-31T09:56:25;21.40;;;9.77;;
46008;SDS011;39597;51.438;7.006;2022-10-31T09:58:53;17.23;;;8.25;;
46008;SDS011;39597;51.438;7.006;2022-10-31T10:09:51;19.15;;;7.50;;
46008;SDS011;39597;51.438;7.006;2022-10-31T10:14:54;19.67;;;8.35;;
46008;SDS011;39597;51.438;7.006;2022-10-31T10:17:26;19.90;;;7.88;;
46008;SDS011;39597;51.438;7.006;2022-10-31T10:25:21;21.65;;;9.30;;
46008;SDS011;39597;51.438;7.006;2022-10-31T10:30:53;17.25;;;7.30;;
46008;SDS011;39597;51.438;7.006;2022-10-31T10:33:27;24.48;;;8.40;;
46008;SDS011;39597;51.438;7.006;2022-10-31T10:36:03;20.85;;;7.80;;
46008;SDS011;39597;51.438;7.006;2022-10-31T10:38:54;19.25;;;7.70;;
46008;SDS011;39597;51.438;7.006;2022-10-31T10:41:28;18.98;;;7.60;;
46008;SDS011;39597;51.438;7.006;2022-10-31T10:43:56;20.48;;;8.68;;
46008;SDS011;39597;51.438;7.006;2022-10-31T10:49:33;20.20;;;8.18;;
46008;SDS011;39597;51.438;7.006;2022-10-31T10:54:48;18.65;;;6.90;;
46008;SDS011;39597;51.438;7.006;2022-10-31T11:00:21;18.42;;;8.00;;
46008;SDS011;39597;51.438;7.006;2022-10-31T11:02:48;16.58;;;6.78;;
46008;SDS011;39597;51.438;7.006;2022-10-31T11:05:20;20.02;;;8.65;;
46008;SDS011;39597;51.438;7.006;2022-10-31T11:07:49;17.60;;;7.25;;
46008;SDS011;39597;51.438;7.006;2022-10-31T11:10:15;14.77;;;6.72;;
46008;SDS011;39597;51.438;7.006;2022-10-31T11:12:42;19.38;;;6.80;;
46008;SDS011;39597;51.438;7.006;2022-10-31T11:15:17;19.30;;;7.03;;
46008;SDS011;39597;51.438;7.006;2022-10-31T11:17:50;21.25;;;8.23;;
46008;SDS011;39597;51.438;7.006;2022-10-31T11:22:43;16.50;;;6.35;;
46008;SDS011;39597;51.438;7.006;2022-10-31T11:25:20;18.40;;;6.65;;
46008;SDS011;39597;51.438;7.006;2022-10-31T11:27:59;17.00;;;6.55;;
46008;SDS011;39597;51.438;7.006;2022-10-31T11:30:29;16.50;;;6.70;;
46008;SDS011;39597;51.438;7.006;2022-10-31T11:33:00;15.82;;;6.60;;
46008;SDS011;39597;51.438;7.006;2022-10-31T11:37:51;14.60;;;6.40;;
46008;SDS011;39597;51.438;7.006;2022-10-31T11:40:25;15.45;;;5.85;;
46008;SDS011;39597;51.438;7.006;2022-10-31T11:42:53;13.45;;;5.82;;
46008;SDS011;39597;51.438;7.006;2022-10-31T11:47:57;15.00;;;5.40;;
46008;SDS011;39597;51.438;7.006;2022-10-31T11:50:31;15.60;;;5.45;;
46008;SDS011;39597;51.438;7.006;2022-10-31T11:55:38;21.27;;;6.53;;
46008;SDS011;39597;51.438;7.006;2022-10-31T11:58:19;14.43;;;5.93;;
46008;SDS011;39597;51.438;7.006;2022-10-31T12:00:51;15.32;;;5.53;;
46008;SDS011;39597;51.438;7.006;2022-10-31T12:06:08;13.25;;;5.63;;
46008;SDS011;39597;51.438;7.006;2022-10-31T12:08:34;10.70;;;4.75;;
46008;SDS011;39597;51.438;7.006;2022-10-31T12:13:55;11.15;;;5.30;;
46008;SDS011;39597;51.438;7.006;2022-10-31T12:16:51;13.85;;;5.00;;
46008;SDS011;39597;51.438;7.006;2022-10-31T12:27:28;15.05;;;5.15;;
46008;SDS011;39597;51.438;7.006;2022-10-31T12:45:56;12.13;;;4.35;;
46008;SDS011;39597;51.438;7.006;2022-10-31T12:59:35;10.50;;;4.93;;
46008;SDS011;39597;51.438;7.006;2022-10-31T13:05:10;9.32;;;3.42;;
46008;SDS011;39597;51.438;7.006;2022-10-31T13:10:31;8.73;;;3.88;;
46008;SDS011;39597;51.438;7.006;2022-10-31T13:13:07;9.57;;;3.63;;
46008;SDS011;39597;51.438;7.006;2022-10-31T13:15:46;7.85;;;3.20;;
46008;SDS011;39597;51.438;7.006;2022-10-31T13:18:20;6.97;;;3.50;;
46008;SDS011;39597;51.438;7.006;2022-10-31T13:20:54;7.53;;;3.35;;
46008;SDS011;39597;51.438;7.006;2022-10-31T13:23:31;7.05;;;2.80;;
46008;SDS011;39597;51.438;7.006;2022-10-31T13:25:59;7.15;;;3.03;;
46008;SDS011;39597;51.438;7.006;2022-10-31T13:28:34;9.00;;;2.72;;
46008;SDS011;39597;51.438;7.006;2022-10-31T13:31:06;7.90;;;3.17;;
46008;SDS011;39597;51.438;7.006;2022-10-31T13:33:34;7.40;;;2.95;;
46008;SDS011;39597;51.438;7.006;2022-10-31T13:38:50;9.48;;;3.05;;
46008;SDS011;39597;51.438;7.006;2022-10-31T13:44:18;7.90;;;2.95;;
46008;SDS011;39597;51.438;7.006;2022-10-31T13:46:56;8.05;;;3.47;;
46008;SDS011;39597;51.438;7.006;2022-10-31T13:54:35;7.28;;;2.15;;
46008;SDS011;39597;51.438;7.006;2022-10-31T13:57:13;5.75;;;1.95;;
46008;SDS011;39597;51.438;7.006;2022-10-31T13:59:55;9.43;;;2.80;;
46008;SDS011;39597;51.438;7.006;2022-10-31T14:02:27;5.10;;;2.15;;
46008;SDS011;39597;51.438;7.006;2022-10-31T14:07:30;6.22;;;2.45;;
46008;SDS011;39597;51.438;7.006;2022-10-31T14:10:04;7.53;;;2.05;;
46008;SDS011;39597;51.438;7.006;2022-10-31T14:12:44;7.40;;;2.47;;
46008;SDS011;39597;51.438;7.006;2022-10-31T14:15:13;8.27;;;2.13;;
46008;SDS011;39597;51.438;7.006;2022-10-31T14:22:37;4.85;;;2.03;;
46008;SDS011;39597;51.438;7.006;2022-10-31T14:27:59;6.55;;;1.83;;
46008;SDS011;39597;51.438;7.006;2022-10-31T14:30:28;7.93;;;2.60;;
46008;SDS011;39597;51.438;7.006;2022-10-31T14:32:56;5.13;;;1.50;;
46008;SDS011;39597;51.438;7.006;2022-10-31T14:36:01;4.90;;;2.13;;
46008;SDS011;39597;51.438;7.006;2022-10-31T14:38:37;5.20;;;1.80;;
46008;SDS011;39597;51.438;7.006;2022-10-31T14:41:28;4.38;;;2.00;;
46008;SDS011;39597;51.438;7.006;2022-10-31T14:52:44;5.07;;;2.00;;
46008;SDS011;39597;51.438;7.006;2022-10-31T14:55:13;5.93;;;1.90;;
46008;SDS011;39597;51.438;7.006;2022-10-31T14:57:44;6.75;;;2.10;;
46008;SDS011;39597;51.438;7.006;2022-10-31T15:00:18;5.47;;;2.17;;
46008;SDS011;39597;51.438;7.006;2022-10-31T15:05:34;5.18;;;2.10;;
46008;SDS011;39597;51.438;7.006;2022-10-31T15:08:12;5.70;;;1.85;;
46008;SDS011;39597;51.438;7.006;2022-10-31T15:10:50;6.03;;;2.25;;
46008;SDS011;39597;51.438;7.006;2022-10-31T15:13:19;4.55;;;2.00;;
46008;SDS011;39597;51.438;7.006;2022-10-31T15:15:47;7.47;;;2.00;;
46008;SDS011;39597;51.438;7.006;2022-10-31T15:18:20;5.50;;;2.15;;
46008;SDS011;39597;51.438;7.006;2022-10-31T15:20:48;4.85;;;2.10;;
46008;SDS011;39597;51.438;7.006;2022-10-31T15:23:25;6.50;;;1.90;;
46008;SDS011;39597;51.438;7.006;2022-10-31T15:25:59;6.47;;;2.03;;
46008;SDS011;39597;51.438;7.006;2022-10-31T15:28:26;7.22;;;2.28;;
46008;SDS011;39597;51.438;7.006;2022-10-31T15:30:52;8.30;;;2.50;;
46008;SDS011;39597;51.438;7.006;2022-10-31T15:33:21;6.43;;;2.20;;
46008;SDS011;39597;51.438;7.006;2022-10-31T15:35:56;5.55;;;2.03;;
46008;SDS011;39597;51.438;7.006;2022-10-31T15:38:23;5.18;;;2.03;;
46008;SDS011;39597;51.438;7.006;2022-10-31T15:40:53;9.77;;;3.00;;
46008;SDS011;39597;51.438;7.006;2022-10-31T15:43:23;8.23;;;2.33;;
46008;SDS011;39597;51.438;7.006;2022-10-31T15:45:49;7.05;;;2.17;;
46008;SDS011;39597;51.438;7.006;2022-10-31T15:50:49;6.38;;;2.10;;
46008;SDS011;39597;51.438;7.006;2022-10-31T15:53:32;6.50;;;2.28;;
46008;SDS011;39597;51.438;7.006;2022-10-31T15:56:02;4.72;;;1.80;;
46008;SDS011;39597;51.438;7.006;2022-10-31T15:58:39;6.70;;;2.60;;
46008;SDS011;39597;51.438;7.006;2022-10-31T16:01:25;17.23;;;2.83;;
46008;SDS011;39597;51.438;7.006;2022-10-31T16:04:34;4.35;;;1.90;;
46008;SDS011;39597;51.438;7.006;2022-10-31T16:06:55;9.00;;;2.25;;
46008;SDS011;39597;51.438;7.006;2022-10-31T16:09:48;9.50;;;2.63;;
46008;SDS011;39597;51.438;7.006;2022-10-31T16:12:14;6.53;;;2.13;;
46008;SDS011;39597;51.438;7.006;2022-10-31T16:17:10;7.95;;;1.98;;
46008;SDS011;39597;51.438;7.006;2022-10-31T16:19:42;6.25;;;1.80;;
46008;SDS011;39597;51.438;7.006;2022-10-31T16:22:19;5.30;;;2.13;;
46008;SDS011;39597;51.438;7.006;2022-10-31T16:27:32;8.25;;;2.00;;
46008;SDS011;39597;51.438;7.006;2022-10-31T16:30:02;5.95;;;1.98;;
46008;SDS011;39597;51.438;7.006;2022-10-31T16:32:52;4.97;;;1.85;;
46008;SDS011;39597;51.438;7.006;2022-10-31T16:35:23;4.93;;;1.90;;
46008;SDS011;39597;51.438;7.006;2022-10-31T16:37:51;5.68;;;1.80;;
46008;SDS011;39597;51.438;7.006;2022-10-31T16:40:16;4.72;;;1.83;;
46008;SDS011;39597;51.438;7.006;2022-10-31T16:42:42;5.15;;;2.03;;
46008;SDS011;39597;51.438;7.006;2022-10-31T16:45:26;6.18;;;1.95;;
46008;SDS011;39597;51.438;7.006;2022-10-31T16:48:01;6.25;;;2.10;;
46008;SDS011;39597;51.438;7.006;2022-10-31T16:50:29;6.68;;;1.70;;
46008;SDS011;39597;51.438;7.006;2022-10-31T16:52:54;6.85;;;1.83;;
46008;SDS011;39597;51.438;7.006;2022-10-31T16:57:47;9.23;;;2.15;;
46008;SDS011;39597;51.438;7.006;2022-10-31T17:00:23;5.22;;;1.92;;
46008;SDS011;39597;51.438;7.006;2022-10-31T17:02:51;6.50;;;2.05;;
46008;SDS011;39597;51.438;7.006;2022-10-31T17:05:20;8.02;;;2.10;;
46008;SDS011;39597;51.438;7.006;2022-10-31T17:07:46;6.72;;;2.10;;
46008;SDS011;39597;51.438;7.006;2022-10-31T17:10:13;7.30;;;2.25;;
46008;SDS011;39597;51.438;7.006;2022-10-31T17:12:43;5.85;;;1.90;;
46008;SDS011;39597;51.438;7.006;2022-10-31T17:15:15;7.15;;;2.22;;
46008;SDS011;39597;51.438;7.006;2022-10-31T17:17:43;5.32;;;1.88;;
46008;SDS011;39597;51.438;7.006;2022-10-31T17:22:45;8.38;;;2.30;;
46008;SDS011;39597;51.438;7.006;2022-10-31T17:27:47;6.78;;;2.00;;
46008;SDS011;39597;51.438;7.006;2022-10-31T17:30:14;4.93;;;1.80;;
46008;SDS011;39597;51.438;7.006;2022-10-31T17:32:40;6.25;;;2.08;;
46008;SDS011;39597;51.438;7.006;2022-10-31T17:35:06;5.55;;;1.80;;
46008;SDS011;39597;51.438;7.006;2022-10-31T17:37:33;6.32;;;1.90;;
46008;SDS011;39597;51.438;7.006;2022-10-31T17:42:24;6.77;;;2.00;;
46008;SDS011;39597;51.438;7.006;2022-10-31T17:47:14;7.10;;;1.90;;
46008;SDS011;39597;51.438;7.006;2022-10-31T17:52:05;4.40;;;1.50;;
46008;SDS011;39597;51.438;7.006;2022-10-31T17:56:55;3.45;;;1.42;;
46008;SDS011;39597;51.438;7.006;2022-10-31T18:01:46;4.10;;;1.33;;
46008;SDS011;39597;51.438;7.006;2022-10-31T18:06:37;8.55;;;2.05;;
46008;SDS011;39597;51.438;7.006;2022-10-31T18:11:31;3.83;;;1.73;;
46008;SDS011;39597;51.438;7.006;2022-10-31T18:13:57;7.70;;;2.00;;
46008;SDS011;39597;51.438;7.006;2022-10-31T18:16:24;5.97;;;1.83;;
46008;SDS011;39597;51.438;7.006;2022-10-31T18:18:51;4.80;;;1.73;;
46008;SDS011;39597;51.438;7.006;2022-10-31T18:21:18;3.63;;;1.55;;
46008;SDS011;39597;51.438;7.006;2022-10-31T18:23:44;8.15;;;1.70;;
46008;SDS011;39597;51.438;7.006;2022-10-31T18:26:09;4.20;;;1.60;;
46008;SDS011;39597;51.438;7.006;2022-10-31T18:31:01;6.75;;;1.58;;
46008;SDS011;39597;51.438;7.006;2022-10-31T18:35:52;4.90;;;2.08;;
46008;SDS011;39597;51.438;7.006;2022-10-31T18:40:44;8.43;;;1.87;;
46008;SDS011;39597;51.438;7.006;2022-10-31T18:45:35;4.07;;;1.43;;
46008;SDS011;39597;51.438;7.006;2022-10-31T18:48:01;4.68;;;1.38;;
46008;SDS011;39597;51.438;7.006;2022-10-31T18:50:28;14.55;;;2.30;;
46008;SDS011;39597;51.438;7.006;2022-10-31T18:52:54;7.40;;;2.17;;
46008;SDS011;39597;51.438;7.006;2022-10-31T18:55:20;5.40;;;1.90;;
46008;SDS011;39597;51.438;7.006;2022-10-31T19:00:11;5.32;;;1.83;;
46008;SDS011;39597;51.438;7.006;2022-10-31T19:02:38;10.40;;;2.05;;
46008;SDS011;39597;51.438;7.006;2022-10-31T19:07:29;4.30;;;1.95;;
46008;SDS011;39597;51.438;7.006;2022-10-31T19:12:20;5.90;;;1.50;;
46008;SDS011;39597;51.438;7.006;2022-10-31T19:17:12;7.35;;;2.30;;